Time;durP1;ratioP1;P1;durP2;ratioP2;P2;SDS_P1;SDS_P2;PMS_P1;PMS_P2;Temp;Humidity;BMP_temperature;BMP_pressure;BME280_temperature;BME280_humidity;BME280_pressure;Samples;Min_cycle;Max_cycle;Signal;HPM_P1;HPM_P2
2022/04/27 00:04:59;;;;;;;4.53;4.17;;;10.10;39.20;;;;;;10287845;28;20237;-73
2022/04/27 00:10:05;;;;;;;4.67;4.27;;;10.10;39.10;;;;;;10288811;28;20235;-73
2022/04/27 00:15:09;;;;;;;3.57;3.27;;;10.00;38.70;;;;;;10289170;28;20402;-72
2022/04/27 00:20:14;;;;;;;4.30;4.00;;;9.90;39.50;;;;;;10289058;28;20244;-72
2022/04/27 00:25:17;;;;;;;3.43;3.23;;;9.80;40.10;;;;;;10288842;28;20240;-73
2022/04/27 00:30:20;;;;;;;3.63;3.33;;;9.70;40.30;;;;;;10288261;28;20243;-73
2022/04/27 00:35:25;;;;;;;3.50;3.20;;;9.70;40.30;;;;;;10288576;28;20228;-73
2022/04/27 00:40:28;;;;;;;3.10;2.90;;;9.70;40.60;;;;;;10287123;28;20244;-73
2022/04/27 00:45:31;;;;;;;3.57;3.33;;;9.80;40.40;;;;;;10287557;28;20636;-73
2022/04/27 00:50:36;;;;;;;3.00;2.80;;;9.80;40.30;;;;;;10286018;28;20255;-73
2022/04/27 00:55:39;;;;;;;3.53;3.23;;;9.70;40.60;;;;;;10287408;28;20240;-73
2022/04/27 01:00:42;;;;;;;3.60;3.30;;;9.80;40.20;;;;;;10287435;28;20306;-73
2022/04/27 01:05:48;;;;;;;3.13;2.93;;;9.70;40.00;;;;;;10287042;28;20235;-73
2022/04/27 01:10:51;;;;;;;3.70;3.50;;;9.60;39.90;;;;;;10287272;28;20803;-73
2022/04/27 01:15:54;;;;;;;3.27;3.07;;;9.50;40.20;;;;;;10287183;28;20231;-73
2022/04/27 01:20:59;;;;;;;3.50;3.30;;;9.50;40.40;;;;;;10286874;28;20307;-73
2022/04/27 01:26:05;;;;;;;4.00;3.70;;;9.40;40.40;;;;;;10285966;28;20243;-73
2022/04/27 01:31:10;;;;;;;3.60;3.30;;;9.30;40.30;;;;;;10286292;28;20250;-72
2022/04/27 01:36:15;;;;;;;3.27;3.07;;;9.20;40.20;;;;;;10285906;28;20232;-73
2022/04/27 01:41:18;;;;;;;3.57;3.27;;;9.20;40.20;;;;;;10285704;28;20239;-73
2022/04/27 01:46:21;;;;;;;4.60;4.30;;;9.20;40.20;;;;;;10285647;28;20273;-73
2022/04/27 01:56:43;;;;;;;3.40;3.20;;;9.20;40.50;;;;;;10283994;28;20234;-73
2022/04/27 02:01:46;;;;;;;3.77;3.47;;;9.20;40.40;;;;;;10284954;28;20238;-73
2022/04/27 02:06:51;;;;;;;3.30;3.00;;;9.30;40.50;;;;;;10284895;28;20243;-72
2022/04/27 02:11:54;;;;;;;3.93;3.63;;;9.30;40.80;;;;;;10284434;28;20231;-73
2022/04/27 02:16:58;;;;;;;3.27;3.07;;;9.40;40.40;;;;;;10284346;28;20231;-73
2022/04/27 02:22:03;;;;;;;3.17;2.97;;;9.40;40.40;;;;;;10284313;28;20247;-73
2022/04/27 02:27:06;;;;;;;3.10;2.83;;;9.30;40.30;;;;;;10284279;28;20232;-73
2022/04/27 02:32:09;;;;;;;3.70;3.40;;;9.30;40.30;;;;;;10284087;28;20253;-73
2022/04/27 02:37:14;;;;;;;3.80;3.50;;;9.20;40.50;;;;;;10283714;28;20236;-73
2022/04/27 02:42:17;;;;;;;3.37;3.13;;;9.20;40.80;;;;;;10283464;28;20243;-73
2022/04/27 02:47:20;;;;;;;3.57;3.30;;;9.20;40.80;;;;;;10283818;28;20247;-73
2022/04/27 02:52:25;;;;;;;3.57;3.27;;;9.30;41.10;;;;;;10283349;28;20236;-73
2022/04/27 02:57:29;;;;;;;3.77;3.47;;;9.30;41.30;;;;;;10283121;28;20678;-73
2022/04/27 03:02:32;;;;;;;4.37;3.43;;;9.30;41.00;;;;;;10282972;28;20245;-73
2022/04/27 03:07:37;;;;;;;4.10;3.80;;;9.30;40.90;;;;;;10283009;28;20257;-73
2022/04/27 03:12:40;;;;;;;4.37;3.90;;;9.30;41.30;;;;;;10282937;28;20245;-73
2022/04/27 03:17:43;;;;;;;4.13;3.80;;;9.30;41.10;;;;;;10289770;28;20278;-73
2022/04/27 03:22:48;;;;;;;4.07;3.77;;;9.20;41.20;;;;;;10290654;28;20239;-73
2022/04/27 03:27:51;;;;;;;3.93;3.63;;;9.20;41.60;;;;;;10290660;28;20358;-73
2022/04/27 03:32:55;;;;;;;3.73;3.43;;;9.30;41.50;;;;;;10290708;28;20240;-73
2022/04/27 03:38:01;;;;;;;4.20;3.90;;;9.30;41.60;;;;;;10290295;28;20236;-73
2022/04/27 03:43:04;;;;;;;4.17;3.87;;;9.30;41.80;;;;;;10289864;28;20231;-73
2022/04/27 03:48:07;;;;;;;3.73;3.50;;;9.40;41.80;;;;;;10289909;28;20245;-73
2022/04/27 03:53:12;;;;;;;4.90;4.50;;;9.40;41.70;;;;;;10289976;28;20244;-73
2022/04/27 03:58:15;;;;;;;4.37;4.07;;;9.50;41.90;;;;;;10289636;28;20235;-72
2022/04/27 04:03:18;;;;;;;5.20;4.70;;;9.50;41.70;;;;;;10289145;28;20235;-73
2022/04/27 04:08:27;;;;;;;4.97;4.40;;;9.30;41.50;;;;;;10289268;28;20282;-72
2022/04/27 04:13:30;;;;;;;5.03;4.63;;;9.50;41.90;;;;;;10289536;28;20236;-73
2022/04/27 04:18:33;;;;;;;5.10;4.60;;;9.40;41.60;;;;;;10289929;28;20798;-73
2022/04/27 04:23:38;;;;;;;5.10;4.70;;;9.40;41.90;;;;;;10289893;28;20664;-73
2022/04/27 04:28:41;;;;;;;6.20;5.70;;;9.40;42.40;;;;;;10290017;28;20227;-74
2022/04/27 04:33:44;;;;;;;6.73;6.20;;;9.40;42.30;;;;;;10289906;28;20235;-73
2022/04/27 04:38:49;;;;;;;11.57;9.50;;;9.50;42.40;;;;;;10289372;28;20247;-73
2022/04/27 04:43:52;;;;;;;7.90;7.20;;;9.50;42.60;;;;;;10289285;28;20239;-73
2022/04/27 04:48:55;;;;;;;9.47;7.37;;;9.50;42.50;;;;;;10290845;28;20253;-73
2022/04/27 04:54:00;;;;;;;7.50;6.90;;;9.50;42.50;;;;;;10294793;28;20234;-73
2022/04/27 04:59:03;;;;;;;7.13;6.53;;;9.40;43.10;;;;;;10286209;28;20292;-73
2022/04/27 05:04:06;;;;;;;8.60;7.80;;;9.40;43.00;;;;;;10264647;28;20236;-73
2022/04/27 05:09:12;;;;;;;7.87;7.13;;;9.50;43.20;;;;;;10260840;28;20235;-74
2022/04/27 05:14:15;;;;;;;7.27;6.67;;;9.60;44.00;;;;;;10262907;28;20231;-74
2022/04/27 05:19:18;;;;;;;7.27;6.57;;;9.70;43.50;;;;;;10266858;28;20643;-74
2022/04/27 05:24:23;;;;;;;9.00;8.10;;;9.70;43.40;;;;;;10270052;28;20239;-76
2022/04/27 05:34:48;;;;;;;7.33;6.73;;;9.80;43.60;;;;;;10258661;28;20236;-73
2022/04/27 05:39:52;;;;;;;9.33;8.50;;;9.90;43.60;;;;;;10258798;28;20229;-73
2022/04/27 05:44:55;;;;;;;8.07;7.37;;;10.00;43.00;;;;;;10257997;28;20231;-73
2022/04/27 05:49:58;;;;;;;9.87;8.97;;;10.10;42.70;;;;;;10253800;28;20231;-74
2022/04/27 05:55:03;;;;;;;11.07;10.00;;;10.20;42.90;;;;;;10254860;28;20681;-73
2022/04/27 06:00:08;;;;;;;10.93;9.93;;;10.30;43.30;;;;;;10256950;28;20720;-74
2022/04/27 06:05:11;;;;;;;16.47;11.07;;;10.40;43.30;;;;;;10256553;28;20231;-74
2022/04/27 06:10:16;;;;;;;13.00;11.90;;;10.50;43.30;;;;;;10257309;28;20255;-74
2022/04/27 06:15:19;;;;;;;11.80;10.77;;;10.60;43.50;;;;;;10255227;28;20235;-74
2022/04/27 06:20:26;;;;;;;12.87;11.67;;;10.70;43.10;;;;;;10252615;28;20240;-74
2022/04/27 06:25:32;;;;;;;13.10;11.90;;;10.80;43.00;;;;;;10256646;28;20600;-74
2022/04/27 06:30:36;;;;;;;12.50;11.40;;;10.80;43.20;;;;;;10244519;28;20240;-74
2022/04/27 06:35:41;;;;;;;14.20;12.93;;;10.90;42.90;;;;;;10249894;28;20224;-74
2022/04/27 06:40:46;;;;;;;13.77;12.57;;;11.00;43.20;;;;;;10248673;28;20640;-74
2022/04/27 06:45:49;;;;;;;13.87;12.67;;;11.00;43.10;;;;;;10245610;28;20267;-74
2022/04/27 06:50:52;;;;;;;13.90;12.70;;;11.10;42.90;;;;;;10245871;28;20247;-74
2022/04/27 06:55:57;;;;;;;14.67;13.37;;;11.10;43.00;;;;;;10248065;28;20228;-74
2022/04/27 07:01:00;;;;;;;15.03;13.63;;;11.10;43.30;;;;;;10247567;28;20239;-74
2022/04/27 07:06:03;;;;;;;14.73;13.33;;;11.20;43.00;;;;;;10242130;28;20237;-73
2022/04/27 07:11:08;;;;;;;13.87;12.67;;;11.30;43.10;;;;;;10251372;28;20676;-73
2022/04/27 07:16:11;;;;;;;13.17;11.97;;;11.40;43.40;;;;;;10244872;28;20228;-74
2022/04/27 07:21:14;;;;;;;14.60;13.30;;;11.50;43.10;;;;;;10244698;28;20232;-74
2022/04/27 07:26:19;;;;;;;14.40;13.00;;;11.50;43.00;;;;;;10245498;28;20309;-74
2022/04/27 07:31:22;;;;;;;14.73;13.37;;;11.60;43.30;;;;;;10246943;28;20268;-74
2022/04/27 07:36:26;;;;;;;15.63;14.23;;;11.60;42.80;;;;;;10245504;28;20238;-74
2022/04/27 07:41:33;;;;;;;14.90;13.50;;;11.70;43.00;;;;;;10254293;28;20327;-74
2022/04/27 07:46:37;;;;;;;16.37;14.87;;;11.70;43.30;;;;;;10249348;28;20223;-74
2022/04/27 07:51:40;;;;;;;16.10;14.60;;;11.80;43.10;;;;;;10246828;28;20242;-74
2022/04/27 07:56:51;;;;;;;17.10;15.57;;;11.80;42.90;;;;;;10250989;28;20229;-74
2022/04/27 08:01:54;;;;;;;17.80;16.10;;;11.80;43.20;;;;;;10252108;28;20293;-74
2022/04/27 08:06:57;;;;;;;17.77;16.17;;;11.80;43.00;;;;;;10258000;28;20224;-74
2022/04/27 08:12:07;;;;;;;18.53;16.83;;;11.90;42.90;;;;;;10250331;28;20610;-74
2022/04/27 08:17:10;;;;;;;17.90;16.20;;;11.90;43.20;;;;;;10252897;28;20235;-75
2022/04/27 08:22:14;;;;;;;15.37;14.07;;;11.90;43.10;;;;;;10248528;28;20657;-74
2022/04/27 08:27:18;;;;;;;15.00;13.70;;;11.90;43.00;;;;;;10253431;28;20618;-75
2022/04/27 08:32:21;;;;;;;14.03;12.73;;;11.90;43.20;;;;;;10255205;28;20232;-74
2022/04/27 08:37:24;;;;;;;13.23;12.03;;;12.00;43.10;;;;;;10253887;28;20221;-75
2022/04/27 08:42:29;;;;;;;13.23;11.97;;;12.00;43.00;;;;;;10253731;28;20236;-74
2022/04/27 08:47:35;;;;;;;13.53;12.27;;;12.10;43.40;;;;;;10254876;28;20235;-74
2022/04/27 08:52:38;;;;;;;12.63;11.53;;;12.20;43.60;;;;;;10254166;28;20235;-74
2022/04/27 08:57:44;;;;;;;11.33;10.43;;;12.30;43.60;;;;;;10252116;28;20606;-74
2022/04/27 09:02:48;;;;;;;11.63;10.63;;;12.40;43.40;;;;;;10248897;28;20251;-74
2022/04/27 09:07:57;;;;;;;10.67;9.77;;;12.40;43.00;;;;;;10256169;28;20239;-75
2022/04/27 09:13:04;;;;;;;11.97;10.93;;;12.50;43.10;;;;;;10254548;28;20239;-75
2022/04/27 09:23:36;;;;;;;9.27;8.57;;;12.70;43.20;;;;;;10255523;28;20267;-75
2022/04/27 09:28:41;;;;;;;8.73;8.03;;;12.90;43.30;;;;;;10248878;28;20647;-74
2022/04/27 09:33:44;;;;;;;7.23;6.73;;;13.10;43.00;;;;;;10248682;28;20242;-75
2022/04/27 09:38:48;;;;;;;7.13;6.53;;;13.30;42.80;;;;;;10247249;28;20290;-76
2022/04/27 09:43:52;;;;;;;6.80;6.20;;;13.50;43.00;;;;;;10252119;28;20242;-75
2022/04/27 09:49:14;;;;;;;6.80;6.20;;;13.60;43.10;;;;;;10253867;28;20523;-75
2022/04/27 09:54:36;;;;;;;5.20;4.80;;;13.70;42.80;;;;;;10247984;28;20224;-76
2022/04/27 09:59:41;;;;;;;5.00;4.70;;;14.00;43.00;;;;;;10250384;28;20224;-75
2022/04/27 10:04:46;;;;;;;5.00;4.60;;;14.10;42.00;;;;;;10253228;28;20299;-75
2022/04/27 10:09:50;;;;;;;4.70;4.40;;;14.30;41.80;;;;;;10248947;28;20234;-76
2022/04/27 10:14:57;;;;;;;5.13;4.77;;;14.40;41.30;;;;;;10250283;28;20224;-75
2022/04/27 10:20:00;;;;;;;5.57;5.17;;;14.50;41.00;;;;;;10249598;28;20223;-76
2022/04/27 10:25:07;;;;;;;5.33;4.90;;;14.50;41.20;;;;;;10248385;28;20949;-76
2022/04/27 10:30:13;;;;;;;6.07;5.57;;;14.50;40.70;;;;;;10246285;28;20775;-75
2022/04/27 10:35:31;;;;;;;6.57;6.07;;;14.50;40.60;;;;;;10251194;28;20252;-75
2022/04/27 10:40:42;;;;;;;6.60;5.93;;;14.50;40.30;;;;;;10249034;28;20299;-75
2022/04/27 10:45:48;;;;;;;6.13;5.63;;;14.50;40.10;;;;;;10249010;28;20227;-75
2022/04/27 10:50:56;;;;;;;5.73;5.23;;;14.50;40.20;;;;;;10245735;28;20312;-74
2022/04/27 10:56:00;;;;;;;6.33;5.83;;;14.60;40.30;;;;;;10248773;28;20287;-75
2022/04/27 11:01:27;;;;;;;6.13;5.70;;;14.70;40.40;;;;;;10242641;28;20242;-74
2022/04/27 11:06:58;;;;;;;6.60;6.10;;;14.80;39.80;;;;;;10248879;28;20361;-74
2022/04/27 11:12:02;;;;;;;5.60;5.17;;;14.80;39.80;;;;;;10242088;28;21233;-74
2022/04/27 11:17:07;;;;;;;5.50;5.10;;;14.90;40.30;;;;;;10252713;28;20227;-74
2022/04/27 11:22:14;;;;;;;5.33;4.93;;;14.90;39.60;;;;;;10245786;28;20236;-75
2022/04/27 11:27:26;;;;;;;5.80;5.30;;;15.00;39.40;;;;;;10250612;28;20251;-75
2022/04/27 11:32:31;;;;;;;5.80;5.40;;;15.10;39.80;;;;;;10251252;28;20283;-75
2022/04/27 11:37:37;;;;;;;5.63;5.23;;;15.30;39.70;;;;;;10253882;28;20240;-75
2022/04/27 11:42:44;;;;;;;5.50;5.10;;;15.30;39.60;;;;;;10256654;28;20235;-75
2022/04/27 11:47:58;;;;;;;5.00;4.60;;;15.30;39.00;;;;;;10255412;28;20240;-75
2022/04/27 11:53:03;;;;;;;5.53;5.13;;;15.20;38.30;;;;;;10265094;28;20260;-75
2022/04/27 11:58:07;;;;;;;4.70;4.40;;;15.20;39.20;;;;;;10265539;28;20295;-75
2022/04/27 12:03:12;;;;;;;5.30;4.90;;;15.20;39.00;;;;;;10262179;28;20319;-75
2022/04/27 12:08:19;;;;;;;4.63;4.33;;;15.10;38.80;;;;;;10258940;28;20291;-75
2022/04/27 12:13:23;;;;;;;4.57;4.27;;;15.10;38.70;;;;;;10271033;28;20623;-76
2022/04/27 12:18:28;;;;;;;4.33;4.03;;;15.20;39.30;;;;;;10259511;28;20291;-73
2022/04/27 12:23:40;;;;;;;4.23;3.93;;;15.20;38.80;;;;;;10254435;28;20737;-75
2022/04/27 12:28:46;;;;;;;4.40;4.10;;;15.30;38.40;;;;;;10250622;28;20356;-75
2022/04/27 12:33:53;;;;;;;4.50;4.10;;;15.40;39.10;;;;;;10254473;28;20294;-75
2022/04/27 12:38:59;;;;;;;4.47;4.17;;;15.50;38.40;;;;;;10248149;28;20267;-74
2022/04/27 12:44:05;;;;;;;4.80;4.40;;;15.50;38.80;;;;;;10249797;28;20329;-75
2022/04/27 12:49:31;;;;;;;4.40;4.00;;;15.60;38.70;;;;;;10259229;28;20575;-75
2022/04/27 12:54:36;;;;;;;4.50;4.20;;;15.70;38.30;;;;;;10259946;28;20239;-75
2022/04/27 12:59:57;;;;;;;4.50;4.20;;;15.90;38.80;;;;;;10257208;28;20230;-75
2022/04/27 13:05:02;;;;;;;4.60;4.27;;;16.00;38.10;;;;;;10256495;28;20224;-74
2022/04/27 13:15:28;;;;;;;4.40;4.10;;;16.30;38.70;;;;;;10258063;28;20228;-74
2022/04/27 13:20:33;;;;;;;4.20;3.90;;;16.40;38.30;;;;;;10258150;28;20235;-75
2022/04/27 13:25:37;;;;;;;5.00;4.60;;;16.50;37.50;;;;;;10261372;28;20251;-74
2022/04/27 13:30:41;;;;;;;4.03;3.70;;;16.60;37.70;;;;;;10262192;28;20232;-75
2022/04/27 13:35:46;;;;;;;4.70;4.30;;;16.70;37.70;;;;;;10256253;28;20696;-76
2022/04/27 13:40:51;;;;;;;4.53;4.20;;;16.70;37.10;;;;;;10265059;28;20315;-75
2022/04/27 13:45:54;;;;;;;4.73;4.37;;;16.80;37.60;;;;;;10263412;28;20236;-75
2022/04/27 13:50:58;;;;;;;4.07;3.70;;;16.90;37.20;;;;;;10262884;28;20228;-75
2022/04/27 13:56:02;;;;;;;4.63;4.33;;;16.90;37.00;;;;;;10253737;28;20242;-74
2022/04/27 14:01:05;;;;;;;4.40;4.10;;;17.00;37.30;;;;;;10256579;28;20235;-75
2022/04/27 14:06:10;;;;;;;4.83;4.47;;;17.10;36.80;;;;;;10254356;28;20246;-75
2022/04/27 14:21:53;;;;;;;4.63;4.30;;;17.20;36.80;;;;;;10258228;28;20235;-76
2022/04/27 14:26:56;;;;;;;4.53;4.23;;;17.10;35.80;;;;;;10260910;28;20771;-75
2022/04/27 14:32:02;;;;;;;4.73;4.33;;;17.20;36.60;;;;;;10260365;28;20238;-75
2022/04/27 14:37:09;;;;;;;4.80;4.40;;;17.20;36.40;;;;;;10265219;28;21338;-75
2022/04/27 14:42:12;;;;;;;4.80;4.50;;;17.30;35.90;;;;;;10257196;28;20231;-75
2022/04/27 14:47:16;;;;;;;4.77;4.37;;;17.40;36.30;;;;;;10259454;28;20286;-76
2022/04/27 14:52:20;;;;;;;4.23;3.83;;;17.50;36.30;;;;;;10255345;28;20315;-75
2022/04/27 14:57:24;;;;;;;4.97;4.33;;;17.60;35.30;;;;;;10248995;28;20367;-76
2022/04/27 15:02:29;;;;;;;4.50;4.20;;;17.70;35.90;;;;;;10258120;28;20245;-75
2022/04/27 15:07:34;;;;;;;3.57;3.27;;;17.90;35.80;;;;;;10254573;28;20231;-79
2022/04/27 15:12:39;;;;;;;3.50;3.30;;;18.00;34.70;;;;;;10258233;28;20228;-76
2022/04/27 15:17:42;;;;;;;3.37;3.17;;;18.10;35.40;;;;;;10263648;28;20235;-76
2022/04/27 15:22:48;;;;;;;3.57;3.27;;;18.20;35.00;;;;;;10258966;28;20500;-76
2022/04/27 15:27:51;;;;;;;2.93;2.73;;;18.30;34.10;;;;;;10259801;28;20716;-76
2022/04/27 15:32:55;;;;;;;3.20;3.00;;;18.50;35.00;;;;;;10259590;28;20231;-75
2022/04/27 15:38:00;;;;;;;3.30;3.10;;;18.60;35.10;;;;;;10256201;28;20266;-75
2022/04/27 15:43:06;;;;;;;3.27;3.07;;;18.60;34.00;;;;;;10253582;28;20240;-75
2022/04/27 15:48:29;;;;;;;3.50;3.20;;;18.70;34.00;;;;;;10255370;28;20279;-75
2022/04/27 15:53:34;;;;;;;3.67;3.37;;;18.80;34.20;;;;;;10251659;28;20255;-75
2022/04/27 15:58:37;;;;;;;3.60;3.30;;;18.80;33.00;;;;;;10254857;28;20579;-76
2022/04/27 16:03:40;;;;;;;3.63;3.33;;;18.90;33.20;;;;;;10253343;28;20251;-75
2022/04/27 16:08:45;;;;;;;3.20;3.00;;;18.80;33.00;;;;;;10253817;28;20732;-75
2022/04/27 16:13:49;;;;;;;3.33;3.03;;;18.80;31.90;;;;;;10254393;28;20236;-74
2022/04/27 16:18:52;;;;;;;3.10;2.90;;;18.70;32.80;;;;;;10254115;28;20234;-74
2022/04/27 16:23:56;;;;;;;2.70;2.50;;;18.80;33.00;;;;;;10254805;28;20239;-74
2022/04/27 16:29:01;;;;;;;3.00;2.80;;;18.80;32.10;;;;;;10258943;28;20220;-74
2022/04/27 16:34:04;;;;;;;3.10;2.90;;;18.80;32.30;;;;;;10260112;28;22797;-75
2022/04/27 16:39:09;;;;;;;2.97;2.77;;;18.80;32.40;;;;;;10263077;28;20355;-74
2022/04/27 16:44:13;;;;;;;2.63;2.53;;;18.80;32.00;;;;;;10261497;28;20252;-74
2022/04/27 16:49:16;;;;;;;2.97;2.77;;;18.80;32.50;;;;;;10257428;28;20627;-75
2022/04/27 16:54:21;;;;;;;3.23;3.03;;;18.80;32.50;;;;;;10258126;28;20228;-75
2022/04/27 16:59:26;;;;;;;2.73;2.53;;;18.80;31.80;;;;;;10251942;28;20902;-75
2022/04/27 17:04:30;;;;;;;3.10;2.90;;;18.70;31.90;;;;;;10253495;28;20236;-74
2022/04/27 17:09:35;;;;;;;3.23;3.03;;;18.60;32.10;;;;;;10254965;28;20784;-74
2022/04/27 17:14:39;;;;;;;3.40;3.20;;;18.50;31.00;;;;;;10259775;28;20318;-75
2022/04/27 17:19:42;;;;;;;4.30;3.90;;;18.50;31.90;;;;;;10262714;28;20775;-75
2022/04/27 17:24:47;;;;;;;4.20;3.90;;;18.50;32.00;;;;;;10261379;28;20228;-75
2022/04/27 17:29:50;;;;;;;4.10;3.80;;;18.40;31.30;;;;;;10252898;28;20739;-75
2022/04/27 17:34:54;;;;;;;5.60;5.20;;;18.30;31.70;;;;;;10254179;28;20854;-75
2022/04/27 17:39:59;;;;;;;4.50;4.07;;;18.20;31.80;;;;;;10260477;28;20235;-75
2022/04/27 17:45:02;;;;;;;3.80;3.50;;;18.10;32.50;;;;;;10261477;28;20260;-74
2022/04/27 17:50:07;;;;;;;4.37;3.97;;;18.10;32.20;;;;;;10258055;28;20275;-75
2022/04/27 17:55:15;;;;;;;5.13;4.73;;;18.00;31.70;;;;;;10261402;28;20318;-75
2022/04/27 18:00:19;;;;;;;6.13;5.63;;;18.00;31.30;;;;;;10261406;28;20243;-75
2022/04/27 18:05:29;;;;;;;6.93;6.33;;;17.90;31.80;;;;;;10256087;28;20236;-75
2022/04/27 18:10:34;;;;;;;5.60;5.20;;;17.90;32.00;;;;;;10265599;28;20232;-76
2022/04/27 18:15:50;;;;;;;5.20;4.80;;;17.90;31.90;;;;;;10261117;28;20234;-75
2022/04/27 18:20:55;;;;;;;3.60;3.40;;;17.80;32.20;;;;;;10261498;28;20239;-75
2022/04/27 18:25:59;;;;;;;3.63;3.37;;;17.70;32.30;;;;;;10256275;28;20239;-75
2022/04/27 18:31:03;;;;;;;3.43;3.23;;;17.70;31.90;;;;;;10262450;28;20248;-75
2022/04/27 18:36:06;;;;;;;2.80;2.60;;;17.60;32.00;;;;;;10259705;28;20259;-75
2022/04/27 18:41:11;;;;;;;3.90;3.60;;;17.50;32.10;;;;;;10257494;28;20234;-76
2022/04/27 18:51:35;;;;;;;3.63;3.33;;;17.30;32.10;;;;;;10259536;28;20746;-75
2022/04/27 18:56:40;;;;;;;3.60;3.30;;;17.20;32.10;;;;;;10254330;28;20788;-75
2022/04/27 19:01:43;;;;;;;4.53;4.13;;;17.00;32.00;;;;;;10260959;28;20234;-75
2022/04/27 19:06:47;;;;;;;4.53;4.13;;;16.90;32.30;;;;;;10263542;28;20230;-75
2022/04/27 19:11:52;;;;;;;4.70;4.30;;;16.80;32.30;;;;;;10263289;28;20236;-75
2022/04/27 19:16:55;;;;;;;4.00;3.70;;;16.60;32.00;;;;;;10256285;28;20661;-75
2022/04/27 19:21:59;;;;;;;3.87;3.57;;;16.50;32.40;;;;;;10260072;28;20260;-75
2022/04/27 19:27:05;;;;;;;5.20;4.17;;;16.40;32.50;;;;;;10255704;28;20375;-75
2022/04/27 19:32:09;;;;;;;5.03;4.60;;;16.20;32.10;;;;;;10260904;28;20251;-75
2022/04/27 19:37:13;;;;;;;3.90;3.60;;;16.10;32.80;;;;;;10257531;28;20353;-74
2022/04/27 19:42:21;;;;;;;3.97;3.67;;;16.00;33.00;;;;;;10262519;28;20663;-75
2022/04/27 19:47:24;;;;;;;4.23;3.83;;;15.80;32.30;;;;;;10254553;28;20235;-74
2022/04/27 19:57:50;;;;;;;5.10;4.70;;;15.50;32.50;;;;;;10262087;28;20337;-73
2022/04/27 20:02:53;;;;;;;5.03;4.60;;;15.40;32.50;;;;;;10262908;28;20240;-73
2022/04/27 20:07:56;;;;;;;5.50;5.00;;;15.30;32.40;;;;;;10258488;28;20228;-73
2022/04/27 20:13:01;;;;;;;5.60;5.20;;;15.20;32.30;;;;;;10259225;28;20806;-73
2022/04/27 20:18:05;;;;;;;5.20;4.77;;;15.00;32.20;;;;;;10254085;28;20231;-74
2022/04/27 20:23:09;;;;;;;6.80;6.20;;;14.90;32.50;;;;;;10260331;28;20245;-74
2022/04/27 20:28:17;;;;;;;7.63;6.77;;;14.70;32.40;;;;;;10308144;23;20232;-74
2022/04/27 20:33:21;;;;;;;7.70;6.93;;;14.70;32.40;;;;;;10307441;28;20223;-74
2022/04/27 20:38:30;;;;;;;5.00;4.60;;;14.60;32.50;;;;;;10310728;28;20310;-74
2022/04/27 20:43:35;;;;;;;5.20;4.77;;;14.50;32.50;;;;;;10312639;28;20234;-74
2022/04/27 20:48:38;;;;;;;4.97;4.57;;;14.40;32.60;;;;;;10308925;28;20239;-74
2022/04/27 20:53:43;;;;;;;4.47;4.13;;;14.30;32.80;;;;;;10309615;28;20250;-73
2022/04/27 20:58:48;;;;;;;4.13;3.83;;;14.20;32.80;;;;;;10307211;28;20242;-74
2022/04/27 21:03:53;;;;;;;4.13;3.83;;;14.10;32.90;;;;;;10302193;28;20238;-74
2022/04/27 21:08:57;;;;;;;4.63;4.30;;;14.10;33.00;;;;;;10302693;28;20236;-74
2022/04/27 21:14:02;;;;;;;4.23;3.93;;;14.00;32.90;;;;;;10305095;28;20599;-73
2022/04/27 21:19:05;;;;;;;4.60;4.20;;;13.90;33.00;;;;;;10313793;28;20237;-74
2022/04/27 21:24:09;;;;;;;5.10;4.77;;;13.90;32.90;;;;;;10312069;28;20231;-74
2022/04/27 21:29:20;;;;;;;4.93;4.53;;;13.80;32.70;;;;;;10301210;28;20261;-74
2022/04/27 21:34:23;;;;;;;6.57;5.97;;;13.60;32.60;;;;;;10312108;28;20239;-74
2022/04/27 21:39:26;;;;;;;6.20;5.70;;;13.50;32.80;;;;;;10305592;28;20707;-74
2022/04/27 21:44:31;;;;;;;5.57;5.17;;;13.30;33.00;;;;;;10307343;28;20239;-73
2022/04/27 21:49:35;;;;;;;5.57;5.17;;;13.30;33.20;;;;;;10308072;28;20223;-74
2022/04/27 21:54:38;;;;;;;4.40;4.10;;;13.20;33.20;;;;;;10324703;28;20233;-74
2022/04/27 21:59:43;;;;;;;5.17;4.77;;;13.10;33.20;;;;;;10318988;28;20593;-73
2022/04/27 22:04:46;;;;;;;5.30;4.83;;;13.00;33.20;;;;;;10305743;28;20232;-73
2022/04/27 22:09:51;;;;;;;5.27;4.77;;;13.00;33.40;;;;;;10327317;28;20237;-74
2022/04/27 22:14:56;;;;;;;5.10;4.70;;;12.90;33.30;;;;;;10304880;28;20726;-74
2022/04/27 22:19:59;;;;;;;4.90;4.50;;;12.90;33.40;;;;;;10308262;28;20231;-74
2022/04/27 22:25:02;;;;;;;5.37;4.97;;;12.70;33.30;;;;;;10315353;28;20239;-74
2022/04/27 22:30:08;;;;;;;5.30;4.90;;;12.80;33.30;;;;;;10312229;28;20326;-74
2022/04/27 22:35:12;;;;;;;7.13;6.53;;;12.70;33.30;;;;;;10308636;28;20235;-74
2022/04/27 22:40:15;;;;;;;6.57;5.97;;;12.60;33.10;;;;;;10314948;28;20234;-74
2022/04/27 22:45:21;;;;;;;7.03;6.47;;;12.40;33.20;;;;;;10317405;28;20239;-74
2022/04/27 22:50:24;;;;;;;7.30;6.60;;;12.30;33.30;;;;;;10327658;28;20226;-74
2022/04/27 22:55:27;;;;;;;6.67;6.00;;;12.20;33.30;;;;;;10309821;28;20246;-74
2022/04/27 23:00:32;;;;;;;8.43;7.57;;;12.20;33.50;;;;;;10315096;28;20230;-74
2022/04/27 23:05:35;;;;;;;8.37;7.57;;;12.10;33.50;;;;;;10313090;28;20234;-73
2022/04/27 23:16:00;;;;;;;6.47;5.87;;;12.00;34.10;;;;;;10306761;28;20246;-74
2022/04/27 23:21:05;;;;;;;7.07;5.27;;;11.80;33.20;;;;;;10314107;28;20251;-74
2022/04/27 23:26:08;;;;;;;5.43;5.03;;;11.70;33.50;;;;;;10306976;28;20896;-74
2022/04/27 23:31:12;;;;;;;6.07;5.53;;;11.60;33.60;;;;;;10319447;28;20230;-74
2022/04/27 23:36:16;;;;;;;5.97;5.47;;;11.50;33.60;;;;;;10323823;28;20277;-74
2022/04/27 23:41:19;;;;;;;5.20;4.80;;;11.40;33.60;;;;;;10320865;28;20235;-73
2022/04/27 23:46:24;;;;;;;5.57;5.03;;;11.20;33.50;;;;;;10316857;28;20239;-74
2022/04/27 23:51:28;;;;;;;5.13;4.63;;;11.10;33.60;;;;;;10314165;28;20235;-74
2022/04/27 23:56:31;;;;;;;4.90;4.50;;;11.00;33.70;;;;;;10326405;28;20253;-73
